sensor_id;sensor_type;location;lat;lon;timestamp;P1;durP1;ratioP1;P2;durP2;ratioP2
16354;SDS011;8287;51.644;8.494;2022-07-05T00:00:56;2.65;;;1.50;;
16354;SDS011;8287;51.644;8.494;2022-07-05T00:03:23;1.85;;;1.60;;
16354;SDS011;8287;51.644;8.494;2022-07-05T00:05:50;1.60;;;1.40;;
16354;SDS011;8287;51.644;8.494;2022-07-05T00:08:17;4.53;;;1.63;;
16354;SDS011;8287;51.644;8.494;2022-07-05T00:10:43;2.38;;;1.58;;
16354;SDS011;8287;51.644;8.494;2022-07-05T00:13:10;1.65;;;1.40;;
16354;SDS011;8287;51.644;8.494;2022-07-05T00:15:39;3.35;;;1.73;;
16354;SDS011;8287;51.644;8.494;2022-07-05T00:18:06;2.55;;;1.92;;
16354;SDS011;8287;51.644;8.494;2022-07-05T00:20:33;2.88;;;1.65;;
16354;SDS011;8287;51.644;8.494;2022-07-05T00:23:00;1.60;;;1.45;;
16354;SDS011;8287;51.644;8.494;2022-07-05T00:25:26;3.85;;;2.10;;
16354;SDS011;8287;51.644;8.494;2022-07-05T00:27:53;3.65;;;1.90;;
16354;SDS011;8287;51.644;8.494;2022-07-05T00:30:20;1.30;;;1.20;;
16354;SDS011;8287;51.644;8.494;2022-07-05T00:32:48;1.73;;;1.60;;
16354;SDS011;8287;51.644;8.494;2022-07-05T00:35:15;3.08;;;1.63;;
16354;SDS011;8287;51.644;8.494;2022-07-05T00:37:41;1.52;;;1.42;;
16354;SDS011;8287;51.644;8.494;2022-07-05T00:40:08;2.17;;;1.70;;
16354;SDS011;8287;51.644;8.494;2022-07-05T00:42:35;2.60;;;1.60;;
16354;SDS011;8287;51.644;8.494;2022-07-05T00:45:03;2.05;;;1.80;;
16354;SDS011;8287;51.644;8.494;2022-07-05T00:47:30;3.67;;;1.75;;
16354;SDS011;8287;51.644;8.494;2022-07-05T00:49:58;2.33;;;2.05;;
16354;SDS011;8287;51.644;8.494;2022-07-05T00:52:24;1.65;;;1.50;;
16354;SDS011;8287;51.644;8.494;2022-07-05T00:54:51;2.08;;;1.88;;
16354;SDS011;8287;51.644;8.494;2022-07-05T00:57:19;1.83;;;1.67;;
16354;SDS011;8287;51.644;8.494;2022-07-05T00:59:47;3.40;;;1.90;;
16354;SDS011;8287;51.644;8.494;2022-07-05T01:02:14;1.60;;;1.50;;
16354;SDS011;8287;51.644;8.494;2022-07-05T01:04:41;2.40;;;1.90;;
16354;SDS011;8287;51.644;8.494;2022-07-05T01:07:09;1.77;;;1.63;;
16354;SDS011;8287;51.644;8.494;2022-07-05T01:09:35;1.50;;;1.40;;
16354;SDS011;8287;51.644;8.494;2022-07-05T01:12:02;1.92;;;1.65;;
16354;SDS011;8287;51.644;8.494;2022-07-05T01:14:29;3.08;;;1.77;;
16354;SDS011;8287;51.644;8.494;2022-07-05T01:16:56;1.63;;;1.52;;
16354;SDS011;8287;51.644;8.494;2022-07-05T01:19:23;2.47;;;1.67;;
16354;SDS011;8287;51.644;8.494;2022-07-05T01:21:50;2.05;;;1.80;;
16354;SDS011;8287;51.644;8.494;2022-07-05T01:24:19;2.42;;;1.88;;
16354;SDS011;8287;51.644;8.494;2022-07-05T01:26:47;2.47;;;1.98;;
16354;SDS011;8287;51.644;8.494;2022-07-05T01:29:15;2.55;;;1.90;;
16354;SDS011;8287;51.644;8.494;2022-07-05T01:31:42;1.83;;;1.73;;
16354;SDS011;8287;51.644;8.494;2022-07-05T01:34:09;2.00;;;1.58;;
16354;SDS011;8287;51.644;8.494;2022-07-05T01:36:37;1.90;;;1.80;;
16354;SDS011;8287;51.644;8.494;2022-07-05T01:39:05;1.88;;;1.77;;
16354;SDS011;8287;51.644;8.494;2022-07-05T01:41:34;5.78;;;2.00;;
16354;SDS011;8287;51.644;8.494;2022-07-05T01:44:01;1.85;;;1.75;;
16354;SDS011;8287;51.644;8.494;2022-07-05T01:46:29;1.92;;;1.55;;
16354;SDS011;8287;51.644;8.494;2022-07-05T01:48:58;3.15;;;1.77;;
16354;SDS011;8287;51.644;8.494;2022-07-05T01:51:30;1.75;;;1.65;;
16354;SDS011;8287;51.644;8.494;2022-07-05T01:54:00;1.98;;;1.65;;
16354;SDS011;8287;51.644;8.494;2022-07-05T01:56:27;2.20;;;1.70;;
16354;SDS011;8287;51.644;8.494;2022-07-05T01:58:55;1.75;;;1.65;;
16354;SDS011;8287;51.644;8.494;2022-07-05T02:01:31;2.17;;;1.40;;
16354;SDS011;8287;51.644;8.494;2022-07-05T02:03:58;2.08;;;1.73;;
16354;SDS011;8287;51.644;8.494;2022-07-05T02:06:25;3.17;;;2.08;;
16354;SDS011;8287;51.644;8.494;2022-07-05T02:08:52;2.05;;;1.80;;
16354;SDS011;8287;51.644;8.494;2022-07-05T02:11:18;1.70;;;1.60;;
16354;SDS011;8287;51.644;8.494;2022-07-05T02:13:45;1.88;;;1.77;;
16354;SDS011;8287;51.644;8.494;2022-07-05T02:16:13;3.17;;;1.30;;
16354;SDS011;8287;51.644;8.494;2022-07-05T02:18:39;1.85;;;1.67;;
16354;SDS011;8287;51.644;8.494;2022-07-05T02:21:06;2.90;;;1.95;;
16354;SDS011;8287;51.644;8.494;2022-07-05T02:23:33;2.08;;;1.85;;
16354;SDS011;8287;51.644;8.494;2022-07-05T02:26:00;2.10;;;1.90;;
16354;SDS011;8287;51.644;8.494;2022-07-05T02:28:26;3.17;;;1.83;;
16354;SDS011;8287;51.644;8.494;2022-07-05T02:30:53;2.72;;;1.80;;
16354;SDS011;8287;51.644;8.494;2022-07-05T02:33:21;1.90;;;1.80;;
16354;SDS011;8287;51.644;8.494;2022-07-05T02:35:47;2.65;;;2.22;;
16354;SDS011;8287;51.644;8.494;2022-07-05T02:38:14;8.48;;;2.30;;
16354;SDS011;8287;51.644;8.494;2022-07-05T02:40:40;4.93;;;2.53;;
16354;SDS011;8287;51.644;8.494;2022-07-05T02:43:07;3.78;;;2.08;;
16354;SDS011;8287;51.644;8.494;2022-07-05T02:45:34;2.20;;;2.05;;
16354;SDS011;8287;51.644;8.494;2022-07-05T02:48:00;2.30;;;1.83;;
16354;SDS011;8287;51.644;8.494;2022-07-05T02:50:28;5.03;;;2.45;;
16354;SDS011;8287;51.644;8.494;2022-07-05T02:52:55;7.32;;;2.17;;
16354;SDS011;8287;51.644;8.494;2022-07-05T02:55:22;2.88;;;2.10;;
16354;SDS011;8287;51.644;8.494;2022-07-05T02:57:49;3.47;;;2.30;;
16354;SDS011;8287;51.644;8.494;2022-07-05T03:00:15;3.42;;;1.95;;
16354;SDS011;8287;51.644;8.494;2022-07-05T03:02:42;2.30;;;1.98;;
16354;SDS011;8287;51.644;8.494;2022-07-05T03:05:09;5.78;;;2.78;;
16354;SDS011;8287;51.644;8.494;2022-07-05T03:07:37;1.95;;;1.85;;
16354;SDS011;8287;51.644;8.494;2022-07-05T03:10:04;2.05;;;1.95;;
16354;SDS011;8287;51.644;8.494;2022-07-05T03:12:31;2.88;;;1.55;;
16354;SDS011;8287;51.644;8.494;2022-07-05T03:14:57;2.92;;;1.95;;
16354;SDS011;8287;51.644;8.494;2022-07-05T03:17:24;3.53;;;2.00;;
16354;SDS011;8287;51.644;8.494;2022-07-05T03:19:51;2.25;;;2.05;;
16354;SDS011;8287;51.644;8.494;2022-07-05T03:22:17;2.40;;;2.20;;
16354;SDS011;8287;51.644;8.494;2022-07-05T03:24:45;3.15;;;2.47;;
16354;SDS011;8287;51.644;8.494;2022-07-05T03:27:12;2.70;;;2.50;;
16354;SDS011;8287;51.644;8.494;2022-07-05T03:29:39;2.30;;;2.10;;
16354;SDS011;8287;51.644;8.494;2022-07-05T03:32:05;4.60;;;2.28;;
16354;SDS011;8287;51.644;8.494;2022-07-05T03:34:32;1.98;;;1.85;;
16354;SDS011;8287;51.644;8.494;2022-07-05T03:36:59;2.45;;;1.80;;
16354;SDS011;8287;51.644;8.494;2022-07-05T03:39:26;3.60;;;1.90;;
16354;SDS011;8287;51.644;8.494;2022-07-05T03:41:54;3.17;;;1.95;;
16354;SDS011;8287;51.644;8.494;2022-07-05T03:44:20;3.40;;;2.10;;
16354;SDS011;8287;51.644;8.494;2022-07-05T03:46:47;2.65;;;1.70;;
16354;SDS011;8287;51.644;8.494;2022-07-05T03:49:14;5.07;;;2.50;;
16354;SDS011;8287;51.644;8.494;2022-07-05T03:51:40;3.80;;;2.17;;
16354;SDS011;8287;51.644;8.494;2022-07-05T03:54:07;3.03;;;2.13;;
16354;SDS011;8287;51.644;8.494;2022-07-05T03:56:34;2.40;;;2.20;;
16354;SDS011;8287;51.644;8.494;2022-07-05T03:59:02;3.65;;;2.53;;
16354;SDS011;8287;51.644;8.494;2022-07-05T04:01:28;4.35;;;1.90;;
16354;SDS011;8287;51.644;8.494;2022-07-05T04:03:55;6.47;;;2.33;;
16354;SDS011;8287;51.644;8.494;2022-07-05T04:06:21;3.00;;;2.00;;
16354;SDS011;8287;51.644;8.494;2022-07-05T04:08:48;1.70;;;1.60;;
16354;SDS011;8287;51.644;8.494;2022-07-05T04:11:15;1.70;;;1.60;;
16354;SDS011;8287;51.644;8.494;2022-07-05T04:13:42;2.33;;;1.83;;
16354;SDS011;8287;51.644;8.494;2022-07-05T04:16:10;2.83;;;1.92;;
16354;SDS011;8287;51.644;8.494;2022-07-05T04:18:37;3.40;;;2.30;;
16354;SDS011;8287;51.644;8.494;2022-07-05T04:21:03;2.45;;;1.98;;
16354;SDS011;8287;51.644;8.494;2022-07-05T04:23:31;2.47;;;2.28;;
16354;SDS011;8287;51.644;8.494;2022-07-05T04:25:57;2.08;;;1.90;;
16354;SDS011;8287;51.644;8.494;2022-07-05T04:28:26;3.35;;;1.85;;
16354;SDS011;8287;51.644;8.494;2022-07-05T04:30:54;4.53;;;2.20;;
16354;SDS011;8287;51.644;8.494;2022-07-05T04:33:23;1.98;;;1.77;;
16354;SDS011;8287;51.644;8.494;2022-07-05T04:35:49;1.80;;;1.67;;
16354;SDS011;8287;51.644;8.494;2022-07-05T04:38:16;2.13;;;1.95;;
16354;SDS011;8287;51.644;8.494;2022-07-05T04:40:43;2.33;;;2.13;;
16354;SDS011;8287;51.644;8.494;2022-07-05T04:43:09;3.33;;;1.98;;
16354;SDS011;8287;51.644;8.494;2022-07-05T04:45:36;2.25;;;2.05;;
16354;SDS011;8287;51.644;8.494;2022-07-05T04:48:03;1.77;;;1.48;;
16354;SDS011;8287;51.644;8.494;2022-07-05T04:50:32;2.60;;;2.35;;
16354;SDS011;8287;51.644;8.494;2022-07-05T04:52:58;2.08;;;1.60;;
16354;SDS011;8287;51.644;8.494;2022-07-05T04:55:25;2.28;;;2.08;;
16354;SDS011;8287;51.644;8.494;2022-07-05T04:57:52;3.15;;;1.75;;
16354;SDS011;8287;51.644;8.494;2022-07-05T05:00:18;2.47;;;2.20;;
16354;SDS011;8287;51.644;8.494;2022-07-05T05:02:45;5.38;;;2.65;;
16354;SDS011;8287;51.644;8.494;2022-07-05T05:05:11;3.00;;;2.42;;
16354;SDS011;8287;51.644;8.494;2022-07-05T05:07:42;2.20;;;1.80;;
16354;SDS011;8287;51.644;8.494;2022-07-05T05:10:10;3.13;;;2.40;;
16354;SDS011;8287;51.644;8.494;2022-07-05T05:12:38;6.10;;;2.60;;
16354;SDS011;8287;51.644;8.494;2022-07-05T05:15:05;2.58;;;2.15;;
16354;SDS011;8287;51.644;8.494;2022-07-05T05:17:34;2.35;;;1.90;;
16354;SDS011;8287;51.644;8.494;2022-07-05T05:20:03;6.82;;;2.47;;
16354;SDS011;8287;51.644;8.494;2022-07-05T05:22:31;2.60;;;2.40;;
16354;SDS011;8287;51.644;8.494;2022-07-05T05:24:59;3.97;;;2.72;;
16354;SDS011;8287;51.644;8.494;2022-07-05T05:27:26;2.80;;;2.60;;
16354;SDS011;8287;51.644;8.494;2022-07-05T05:29:52;3.83;;;2.88;;
16354;SDS011;8287;51.644;8.494;2022-07-05T05:32:19;3.45;;;2.40;;
16354;SDS011;8287;51.644;8.494;2022-07-05T05:34:46;5.38;;;2.35;;
16354;SDS011;8287;51.644;8.494;2022-07-05T05:37:12;5.70;;;2.08;;
16354;SDS011;8287;51.644;8.494;2022-07-05T05:39:39;3.25;;;2.20;;
16354;SDS011;8287;51.644;8.494;2022-07-05T05:42:07;3.75;;;2.50;;
16354;SDS011;8287;51.644;8.494;2022-07-05T05:44:34;2.38;;;1.98;;
16354;SDS011;8287;51.644;8.494;2022-07-05T05:47:01;3.97;;;2.50;;
16354;SDS011;8287;51.644;8.494;2022-07-05T05:49:27;8.55;;;2.58;;
16354;SDS011;8287;51.644;8.494;2022-07-05T05:51:54;3.70;;;2.40;;
16354;SDS011;8287;51.644;8.494;2022-07-05T05:54:21;4.50;;;2.50;;
16354;SDS011;8287;51.644;8.494;2022-07-05T05:56:47;3.88;;;2.42;;
16354;SDS011;8287;51.644;8.494;2022-07-05T05:59:15;7.25;;;3.10;;
16354;SDS011;8287;51.644;8.494;2022-07-05T06:01:42;2.83;;;2.63;;
16354;SDS011;8287;51.644;8.494;2022-07-05T06:04:09;4.57;;;2.08;;
16354;SDS011;8287;51.644;8.494;2022-07-05T06:06:36;2.70;;;2.20;;
16354;SDS011;8287;51.644;8.494;2022-07-05T06:09:02;3.13;;;2.35;;
16354;SDS011;8287;51.644;8.494;2022-07-05T06:11:29;3.13;;;2.17;;
16354;SDS011;8287;51.644;8.494;2022-07-05T06:13:56;4.03;;;2.42;;
16354;SDS011;8287;51.644;8.494;2022-07-05T06:16:24;4.07;;;2.50;;
16354;SDS011;8287;51.644;8.494;2022-07-05T06:18:50;3.42;;;2.05;;
16354;SDS011;8287;51.644;8.494;2022-07-05T06:21:17;3.88;;;2.53;;
16354;SDS011;8287;51.644;8.494;2022-07-05T06:23:44;2.45;;;2.08;;
16354;SDS011;8287;51.644;8.494;2022-07-05T06:26:10;6.53;;;2.53;;
16354;SDS011;8287;51.644;8.494;2022-07-05T06:28:37;3.00;;;2.17;;
16354;SDS011;8287;51.644;8.494;2022-07-05T06:31:03;2.33;;;2.13;;
16354;SDS011;8287;51.644;8.494;2022-07-05T06:33:31;3.47;;;3.15;;
16354;SDS011;8287;51.644;8.494;2022-07-05T06:35:58;4.43;;;2.88;;
16354;SDS011;8287;51.644;8.494;2022-07-05T06:38:25;3.25;;;2.95;;
16354;SDS011;8287;51.644;8.494;2022-07-05T06:40:51;3.72;;;2.45;;
16354;SDS011;8287;51.644;8.494;2022-07-05T06:43:18;2.42;;;2.20;;
16354;SDS011;8287;51.644;8.494;2022-07-05T06:45:45;3.08;;;2.08;;
16354;SDS011;8287;51.644;8.494;2022-07-05T06:48:13;6.35;;;2.80;;
16354;SDS011;8287;51.644;8.494;2022-07-05T06:50:41;4.43;;;1.95;;
16354;SDS011;8287;51.644;8.494;2022-07-05T06:53:10;3.63;;;1.95;;
16354;SDS011;8287;51.644;8.494;2022-07-05T06:55:38;2.20;;;1.75;;
16354;SDS011;8287;51.644;8.494;2022-07-05T06:58:09;5.43;;;1.92;;
16354;SDS011;8287;51.644;8.494;2022-07-05T07:00:36;2.47;;;2.20;;
16354;SDS011;8287;51.644;8.494;2022-07-05T07:03:03;2.33;;;1.80;;
16354;SDS011;8287;51.644;8.494;2022-07-05T07:05:30;3.67;;;2.30;;
16354;SDS011;8287;51.644;8.494;2022-07-05T07:07:58;3.10;;;2.13;;
16354;SDS011;8287;51.644;8.494;2022-07-05T07:10:42;6.30;;;2.10;;
16354;SDS011;8287;51.644;8.494;2022-07-05T07:13:09;1.90;;;1.80;;
16354;SDS011;8287;51.644;8.494;2022-07-05T07:15:35;2.20;;;2.00;;
16354;SDS011;8287;51.644;8.494;2022-07-05T07:18:04;2.33;;;1.55;;
16354;SDS011;8287;51.644;8.494;2022-07-05T07:20:31;3.15;;;2.35;;
16354;SDS011;8287;51.644;8.494;2022-07-05T07:22:59;4.32;;;1.63;;
16354;SDS011;8287;51.644;8.494;2022-07-05T07:25:25;3.60;;;2.17;;
16354;SDS011;8287;51.644;8.494;2022-07-05T07:27:53;1.83;;;1.50;;
16354;SDS011;8287;51.644;8.494;2022-07-05T07:30:21;3.55;;;1.90;;
16354;SDS011;8287;51.644;8.494;2022-07-05T07:32:49;4.43;;;2.40;;
16354;SDS011;8287;51.644;8.494;2022-07-05T07:35:16;3.25;;;1.90;;
16354;SDS011;8287;51.644;8.494;2022-07-05T07:37:42;1.77;;;1.17;;
16354;SDS011;8287;51.644;8.494;2022-07-05T07:40:11;1.48;;;1.38;;
16354;SDS011;8287;51.644;8.494;2022-07-05T07:42:38;2.00;;;1.80;;
16354;SDS011;8287;51.644;8.494;2022-07-05T07:45:05;1.83;;;1.73;;
16354;SDS011;8287;51.644;8.494;2022-07-05T07:47:33;2.95;;;2.10;;
16354;SDS011;8287;51.644;8.494;2022-07-05T07:50:03;3.58;;;1.70;;
16354;SDS011;8287;51.644;8.494;2022-07-05T07:52:31;2.00;;;1.50;;
16354;SDS011;8287;51.644;8.494;2022-07-05T07:54:59;4.53;;;2.47;;
16354;SDS011;8287;51.644;8.494;2022-07-05T07:57:27;2.55;;;1.73;;
16354;SDS011;8287;51.644;8.494;2022-07-05T07:59:54;2.13;;;1.90;;
16354;SDS011;8287;51.644;8.494;2022-07-05T08:02:21;3.58;;;1.85;;
16354;SDS011;8287;51.644;8.494;2022-07-05T08:04:48;1.65;;;1.55;;
16354;SDS011;8287;51.644;8.494;2022-07-05T08:07:15;2.97;;;1.63;;
16354;SDS011;8287;51.644;8.494;2022-07-05T08:09:42;2.38;;;1.63;;
16354;SDS011;8287;51.644;8.494;2022-07-05T08:12:09;5.88;;;2.35;;
16354;SDS011;8287;51.644;8.494;2022-07-05T08:14:37;1.55;;;1.45;;
16354;SDS011;8287;51.644;8.494;2022-07-05T08:17:04;2.38;;;1.70;;
16354;SDS011;8287;51.644;8.494;2022-07-05T08:19:33;3.50;;;2.10;;
16354;SDS011;8287;51.644;8.494;2022-07-05T08:22:17;2.05;;;1.50;;
16354;SDS011;8287;51.644;8.494;2022-07-05T08:24:44;4.38;;;1.60;;
16354;SDS011;8287;51.644;8.494;2022-07-05T08:27:11;4.50;;;1.77;;
16354;SDS011;8287;51.644;8.494;2022-07-05T08:29:40;1.85;;;1.55;;
16354;SDS011;8287;51.644;8.494;2022-07-05T08:32:07;1.65;;;1.40;;
16354;SDS011;8287;51.644;8.494;2022-07-05T08:34:35;2.28;;;1.52;;
16354;SDS011;8287;51.644;8.494;2022-07-05T08:37:02;2.55;;;1.20;;
16354;SDS011;8287;51.644;8.494;2022-07-05T08:39:29;1.98;;;1.00;;
16354;SDS011;8287;51.644;8.494;2022-07-05T08:41:56;1.23;;;0.93;;
16354;SDS011;8287;51.644;8.494;2022-07-05T08:44:24;1.15;;;1.05;;
16354;SDS011;8287;51.644;8.494;2022-07-05T08:46:56;1.88;;;1.00;;
16354;SDS011;8287;51.644;8.494;2022-07-05T08:49:24;1.40;;;1.13;;
16354;SDS011;8287;51.644;8.494;2022-07-05T08:51:52;1.60;;;1.35;;
16354;SDS011;8287;51.644;8.494;2022-07-05T08:54:20;3.80;;;1.27;;
16354;SDS011;8287;51.644;8.494;2022-07-05T08:56:48;3.20;;;1.10;;
16354;SDS011;8287;51.644;8.494;2022-07-05T08:59:18;1.27;;;0.88;;
16354;SDS011;8287;51.644;8.494;2022-07-05T09:01:45;1.20;;;0.80;;
16354;SDS011;8287;51.644;8.494;2022-07-05T09:04:14;2.63;;;1.58;;
16354;SDS011;8287;51.644;8.494;2022-07-05T09:06:47;2.00;;;1.50;;
16354;SDS011;8287;51.644;8.494;2022-07-05T09:09:16;2.33;;;1.20;;
16354;SDS011;8287;51.644;8.494;2022-07-05T09:11:45;4.15;;;2.10;;
16354;SDS011;8287;51.644;8.494;2022-07-05T09:14:19;3.20;;;1.27;;
16354;SDS011;8287;51.644;8.494;2022-07-05T09:16:48;0.90;;;0.90;;
16354;SDS011;8287;51.644;8.494;2022-07-05T09:19:16;5.05;;;1.75;;
16354;SDS011;8287;51.644;8.494;2022-07-05T09:21:42;7.38;;;1.45;;
16354;SDS011;8287;51.644;8.494;2022-07-05T09:24:10;1.88;;;1.65;;
16354;SDS011;8287;51.644;8.494;2022-07-05T09:26:38;2.85;;;1.27;;
16354;SDS011;8287;51.644;8.494;2022-07-05T09:29:06;1.42;;;1.00;;
16354;SDS011;8287;51.644;8.494;2022-07-05T09:31:37;2.45;;;1.50;;
16354;SDS011;8287;51.644;8.494;2022-07-05T09:34:05;1.30;;;1.10;;
16354;SDS011;8287;51.644;8.494;2022-07-05T09:36:47;1.75;;;1.50;;
16354;SDS011;8287;51.644;8.494;2022-07-05T09:39:18;1.30;;;1.20;;
16354;SDS011;8287;51.644;8.494;2022-07-05T09:42:08;1.48;;;1.35;;
16354;SDS011;8287;51.644;8.494;2022-07-05T09:44:38;4.28;;;1.60;;
16354;SDS011;8287;51.644;8.494;2022-07-05T09:47:08;2.20;;;1.23;;
16354;SDS011;8287;51.644;8.494;2022-07-05T09:49:38;3.60;;;1.73;;
16354;SDS011;8287;51.644;8.494;2022-07-05T09:52:09;1.33;;;1.23;;
16354;SDS011;8287;51.644;8.494;2022-07-05T09:54:37;4.10;;;0.82;;
16354;SDS011;8287;51.644;8.494;2022-07-05T09:57:04;1.05;;;0.95;;
16354;SDS011;8287;51.644;8.494;2022-07-05T09:59:30;1.80;;;1.50;;
16354;SDS011;8287;51.644;8.494;2022-07-05T10:01:57;1.52;;;0.93;;
16354;SDS011;8287;51.644;8.494;2022-07-05T10:04:23;0.82;;;0.82;;
16354;SDS011;8287;51.644;8.494;2022-07-05T10:06:50;5.22;;;1.35;;
16354;SDS011;8287;51.644;8.494;2022-07-05T10:09:18;3.03;;;1.35;;
16354;SDS011;8287;51.644;8.494;2022-07-05T10:11:46;2.65;;;1.25;;
16354;SDS011;8287;51.644;8.494;2022-07-05T10:14:16;1.10;;;1.02;;
16354;SDS011;8287;51.644;8.494;2022-07-05T10:16:46;1.05;;;1.05;;
16354;SDS011;8287;51.644;8.494;2022-07-05T10:19:18;1.27;;;1.02;;
16354;SDS011;8287;51.644;8.494;2022-07-05T10:21:46;1.05;;;0.95;;
16354;SDS011;8287;51.644;8.494;2022-07-05T10:24:13;0.80;;;0.70;;
16354;SDS011;8287;51.644;8.494;2022-07-05T10:26:44;4.93;;;0.98;;
16354;SDS011;8287;51.644;8.494;2022-07-05T10:29:12;2.35;;;1.00;;
16354;SDS011;8287;51.644;8.494;2022-07-05T10:31:40;3.33;;;1.05;;
16354;SDS011;8287;51.644;8.494;2022-07-05T10:34:09;1.83;;;1.20;;
16354;SDS011;8287;51.644;8.494;2022-07-05T10:36:36;1.55;;;1.02;;
16354;SDS011;8287;51.644;8.494;2022-07-05T10:39:08;1.70;;;0.80;;
16354;SDS011;8287;51.644;8.494;2022-07-05T10:41:36;1.35;;;1.05;;
16354;SDS011;8287;51.644;8.494;2022-07-05T10:44:06;1.20;;;1.10;;
16354;SDS011;8287;51.644;8.494;2022-07-05T10:46:34;1.35;;;0.85;;
16354;SDS011;8287;51.644;8.494;2022-07-05T10:49:11;1.23;;;0.80;;
16354;SDS011;8287;51.644;8.494;2022-07-05T10:51:40;0.70;;;0.70;;
16354;SDS011;8287;51.644;8.494;2022-07-05T10:54:07;6.25;;;1.10;;
16354;SDS011;8287;51.644;8.494;2022-07-05T10:56:34;1.27;;;0.93;;
16354;SDS011;8287;51.644;8.494;2022-07-05T10:59:06;4.75;;;1.05;;
16354;SDS011;8287;51.644;8.494;2022-07-05T11:01:39;3.95;;;1.30;;
16354;SDS011;8287;51.644;8.494;2022-07-05T11:04:10;0.88;;;0.88;;
16354;SDS011;8287;51.644;8.494;2022-07-05T11:06:59;4.13;;;1.13;;
16354;SDS011;8287;51.644;8.494;2022-07-05T11:09:26;0.80;;;0.80;;
16354;SDS011;8287;51.644;8.494;2022-07-05T11:14:46;2.17;;;0.98;;
16354;SDS011;8287;51.644;8.494;2022-07-05T11:17:22;1.15;;;1.00;;
16354;SDS011;8287;51.644;8.494;2022-07-05T11:20:05;1.67;;;1.13;;
16354;SDS011;8287;51.644;8.494;2022-07-05T11:22:38;1.05;;;0.80;;
16354;SDS011;8287;51.644;8.494;2022-07-05T11:25:07;3.42;;;1.00;;
16354;SDS011;8287;51.644;8.494;2022-07-05T11:27:36;4.00;;;0.88;;
16354;SDS011;8287;51.644;8.494;2022-07-05T11:30:24;1.63;;;0.90;;
16354;SDS011;8287;51.644;8.494;2022-07-05T11:32:51;1.58;;;0.90;;
16354;SDS011;8287;51.644;8.494;2022-07-05T11:35:18;2.05;;;0.75;;
16354;SDS011;8287;51.644;8.494;2022-07-05T11:37:59;1.10;;;1.00;;
16354;SDS011;8287;51.644;8.494;2022-07-05T11:40:27;1.95;;;0.60;;
16354;SDS011;8287;51.644;8.494;2022-07-05T11:42:55;1.27;;;0.80;;
16354;SDS011;8287;51.644;8.494;2022-07-05T11:45:22;2.47;;;1.20;;
16354;SDS011;8287;51.644;8.494;2022-07-05T11:47:51;1.02;;;0.75;;
16354;SDS011;8287;51.644;8.494;2022-07-05T11:50:24;0.57;;;0.57;;
16354;SDS011;8287;51.644;8.494;2022-07-05T11:52:52;2.65;;;0.95;;
16354;SDS011;8287;51.644;8.494;2022-07-05T11:55:19;1.67;;;0.80;;
16354;SDS011;8287;51.644;8.494;2022-07-05T11:57:49;1.35;;;1.10;;
16354;SDS011;8287;51.644;8.494;2022-07-05T12:00:24;1.17;;;0.93;;
16354;SDS011;8287;51.644;8.494;2022-07-05T12:02:54;2.35;;;1.02;;
16354;SDS011;8287;51.644;8.494;2022-07-05T12:05:21;2.60;;;1.13;;
16354;SDS011;8287;51.644;8.494;2022-07-05T12:07:48;0.90;;;0.90;;
16354;SDS011;8287;51.644;8.494;2022-07-05T12:10:16;1.88;;;1.00;;
16354;SDS011;8287;51.644;8.494;2022-07-05T12:13:03;1.05;;;0.95;;
16354;SDS011;8287;51.644;8.494;2022-07-05T12:15:30;0.47;;;0.47;;
16354;SDS011;8287;51.644;8.494;2022-07-05T12:17:59;0.80;;;0.80;;
16354;SDS011;8287;51.644;8.494;2022-07-05T12:20:28;2.88;;;0.80;;
16354;SDS011;8287;51.644;8.494;2022-07-05T12:22:56;2.75;;;0.90;;
16354;SDS011;8287;51.644;8.494;2022-07-05T12:25:24;0.75;;;0.70;;
16354;SDS011;8287;51.644;8.494;2022-07-05T12:27:52;0.82;;;0.82;;
16354;SDS011;8287;51.644;8.494;2022-07-05T12:30:20;2.17;;;0.88;;
16354;SDS011;8287;51.644;8.494;2022-07-05T12:32:58;3.65;;;0.73;;
16354;SDS011;8287;51.644;8.494;2022-07-05T12:35:27;1.25;;;1.00;;
16354;SDS011;8287;51.644;8.494;2022-07-05T12:38:01;0.73;;;0.73;;
16354;SDS011;8287;51.644;8.494;2022-07-05T12:40:32;3.00;;;1.08;;
16354;SDS011;8287;51.644;8.494;2022-07-05T12:43:00;2.60;;;0.95;;
16354;SDS011;8287;51.644;8.494;2022-07-05T12:45:33;3.03;;;0.70;;
16354;SDS011;8287;51.644;8.494;2022-07-05T12:48:03;1.20;;;0.98;;
16354;SDS011;8287;51.644;8.494;2022-07-05T12:50:43;0.98;;;0.90;;
16354;SDS011;8287;51.644;8.494;2022-07-05T12:53:11;3.35;;;1.13;;
16354;SDS011;8287;51.644;8.494;2022-07-05T12:56:00;0.60;;;0.60;;
16354;SDS011;8287;51.644;8.494;2022-07-05T12:58:45;0.90;;;0.90;;
16354;SDS011;8287;51.644;8.494;2022-07-05T13:01:19;3.53;;;0.80;;
16354;SDS011;8287;51.644;8.494;2022-07-05T13:04:04;1.13;;;1.00;;
16354;SDS011;8287;51.644;8.494;2022-07-05T13:06:40;1.13;;;0.98;;
16354;SDS011;8287;51.644;8.494;2022-07-05T13:09:13;2.55;;;0.90;;
16354;SDS011;8287;51.644;8.494;2022-07-05T13:11:40;2.25;;;1.02;;
16354;SDS011;8287;51.644;8.494;2022-07-05T13:14:07;1.00;;;0.90;;
16354;SDS011;8287;51.644;8.494;2022-07-05T13:16:34;0.98;;;0.93;;
16354;SDS011;8287;51.644;8.494;2022-07-05T13:19:11;1.00;;;0.90;;
16354;SDS011;8287;51.644;8.494;2022-07-05T13:21:38;1.08;;;1.00;;
16354;SDS011;8287;51.644;8.494;2022-07-05T13:24:05;1.70;;;0.85;;
16354;SDS011;8287;51.644;8.494;2022-07-05T13:26:32;1.13;;;1.02;;
16354;SDS011;8287;51.644;8.494;2022-07-05T13:28:59;1.23;;;1.20;;
16354;SDS011;8287;51.644;8.494;2022-07-05T13:31:25;2.38;;;1.10;;
16354;SDS011;8287;51.644;8.494;2022-07-05T13:33:55;2.33;;;0.90;;
16354;SDS011;8287;51.644;8.494;2022-07-05T13:36:24;0.85;;;0.85;;
16354;SDS011;8287;51.644;8.494;2022-07-05T13:38:51;1.55;;;1.17;;
16354;SDS011;8287;51.644;8.494;2022-07-05T13:41:18;1.13;;;0.80;;
16354;SDS011;8287;51.644;8.494;2022-07-05T13:43:45;1.58;;;0.85;;
16354;SDS011;8287;51.644;8.494;2022-07-05T13:46:11;1.67;;;1.20;;
16354;SDS011;8287;51.644;8.494;2022-07-05T13:48:38;2.88;;;1.20;;
16354;SDS011;8287;51.644;8.494;2022-07-05T13:51:06;2.92;;;1.00;;
16354;SDS011;8287;51.644;8.494;2022-07-05T13:53:34;1.30;;;1.10;;
16354;SDS011;8287;51.644;8.494;2022-07-05T13:56:01;1.63;;;0.70;;
16354;SDS011;8287;51.644;8.494;2022-07-05T13:58:29;1.67;;;1.02;;
16354;SDS011;8287;51.644;8.494;2022-07-05T14:00:55;6.63;;;0.80;;
16354;SDS011;8287;51.644;8.494;2022-07-05T14:03:22;1.40;;;1.30;;
16354;SDS011;8287;51.644;8.494;2022-07-05T14:05:49;1.73;;;1.10;;
16354;SDS011;8287;51.644;8.494;2022-07-05T14:08:15;1.33;;;1.23;;
16354;SDS011;8287;51.644;8.494;2022-07-05T14:10:48;0.82;;;0.82;;
16354;SDS011;8287;51.644;8.494;2022-07-05T14:13:16;0.73;;;0.73;;
16354;SDS011;8287;51.644;8.494;2022-07-05T14:15:43;1.00;;;0.80;;
16354;SDS011;8287;51.644;8.494;2022-07-05T14:18:12;1.95;;;0.85;;
16354;SDS011;8287;51.644;8.494;2022-07-05T14:20:39;0.98;;;0.90;;
16354;SDS011;8287;51.644;8.494;2022-07-05T14:23:06;3.20;;;1.02;;
16354;SDS011;8287;51.644;8.494;2022-07-05T14:25:33;1.05;;;0.95;;
16354;SDS011;8287;51.644;8.494;2022-07-05T14:28:01;2.00;;;0.57;;
16354;SDS011;8287;51.644;8.494;2022-07-05T14:30:32;1.30;;;0.95;;
16354;SDS011;8287;51.644;8.494;2022-07-05T14:32:59;0.77;;;0.77;;
16354;SDS011;8287;51.644;8.494;2022-07-05T14:35:26;1.38;;;0.93;;
16354;SDS011;8287;51.644;8.494;2022-07-05T14:37:52;0.65;;;0.60;;
16354;SDS011;8287;51.644;8.494;2022-07-05T14:40:19;4.55;;;1.02;;
16354;SDS011;8287;51.644;8.494;2022-07-05T14:42:48;5.38;;;0.90;;
16354;SDS011;8287;51.644;8.494;2022-07-05T14:45:16;1.10;;;0.63;;
16354;SDS011;8287;51.644;8.494;2022-07-05T14:47:43;1.02;;;0.80;;
16354;SDS011;8287;51.644;8.494;2022-07-05T14:50:09;2.92;;;1.00;;
16354;SDS011;8287;51.644;8.494;2022-07-05T14:52:36;2.03;;;1.10;;
16354;SDS011;8287;51.644;8.494;2022-07-05T14:55:03;6.53;;;0.90;;
16354;SDS011;8287;51.644;8.494;2022-07-05T14:57:30;1.33;;;0.93;;
16354;SDS011;8287;51.644;8.494;2022-07-05T14:59:56;1.55;;;1.00;;
16354;SDS011;8287;51.644;8.494;2022-07-05T15:02:25;1.38;;;0.80;;
16354;SDS011;8287;51.644;8.494;2022-07-05T15:04:51;0.82;;;0.75;;
16354;SDS011;8287;51.644;8.494;2022-07-05T15:07:18;2.95;;;1.23;;
16354;SDS011;8287;51.644;8.494;2022-07-05T15:09:45;1.95;;;0.90;;